sensor_id;sensor_type;location;lat;lon;timestamp;P1;durP1;ratioP1;P2;durP2;ratioP2
3341;SDS011;1684;50.748;6.154;2023-08-08T00:01:38;4.60;;;2.90;;
3341;SDS011;1684;50.748;6.154;2023-08-08T00:04:09;4.93;;;2.70;;
3341;SDS011;1684;50.748;6.154;2023-08-08T00:06:37;4.10;;;2.53;;
3341;SDS011;1684;50.748;6.154;2023-08-08T00:09:07;5.20;;;2.90;;
3341;SDS011;1684;50.748;6.154;2023-08-08T00:11:35;4.70;;;2.80;;
3341;SDS011;1684;50.748;6.154;2023-08-08T00:14:03;6.37;;;3.63;;
3341;SDS011;1684;50.748;6.154;2023-08-08T00:16:32;4.87;;;2.80;;
3341;SDS011;1684;50.748;6.154;2023-08-08T00:19:01;7.37;;;3.60;;
3341;SDS011;1684;50.748;6.154;2023-08-08T00:21:29;5.30;;;2.93;;
3341;SDS011;1684;50.748;6.154;2023-08-08T00:23:57;5.27;;;3.43;;
3341;SDS011;1684;50.748;6.154;2023-08-08T00:26:27;4.20;;;2.80;;
3341;SDS011;1684;50.748;6.154;2023-08-08T00:28:55;6.23;;;3.10;;
3341;SDS011;1684;50.748;6.154;2023-08-08T00:31:24;7.07;;;3.13;;
3341;SDS011;1684;50.748;6.154;2023-08-08T00:33:52;5.33;;;3.20;;
3341;SDS011;1684;50.748;6.154;2023-08-08T00:36:20;5.93;;;3.10;;
3341;SDS011;1684;50.748;6.154;2023-08-08T00:38:49;5.70;;;3.17;;
3341;SDS011;1684;50.748;6.154;2023-08-08T00:41:17;6.90;;;3.63;;
3341;SDS011;1684;50.748;6.154;2023-08-08T00:43:46;5.33;;;2.70;;
3341;SDS011;1684;50.748;6.154;2023-08-08T00:46:16;6.50;;;4.10;;
3341;SDS011;1684;50.748;6.154;2023-08-08T00:48:48;4.93;;;3.17;;
3341;SDS011;1684;50.748;6.154;2023-08-08T00:51:16;5.63;;;3.00;;
3341;SDS011;1684;50.748;6.154;2023-08-08T00:53:44;8.43;;;4.50;;
3341;SDS011;1684;50.748;6.154;2023-08-08T00:56:13;7.03;;;3.93;;
3341;SDS011;1684;50.748;6.154;2023-08-08T00:58:43;9.60;;;3.70;;
3341;SDS011;1684;50.748;6.154;2023-08-08T01:01:13;8.53;;;3.53;;
3341;SDS011;1684;50.748;6.154;2023-08-08T01:03:41;5.23;;;3.40;;
3341;SDS011;1684;50.748;6.154;2023-08-08T01:06:10;6.70;;;3.77;;
3341;SDS011;1684;50.748;6.154;2023-08-08T01:08:42;5.33;;;3.27;;
3341;SDS011;1684;50.748;6.154;2023-08-08T01:11:12;7.93;;;3.60;;
3341;SDS011;1684;50.748;6.154;2023-08-08T01:13:41;6.20;;;3.10;;
3341;SDS011;1684;50.748;6.154;2023-08-08T01:16:10;4.97;;;3.10;;
3341;SDS011;1684;50.748;6.154;2023-08-08T01:18:40;5.73;;;3.40;;
3341;SDS011;1684;50.748;6.154;2023-08-08T01:21:10;6.23;;;3.57;;
3341;SDS011;1684;50.748;6.154;2023-08-08T01:23:41;8.67;;;3.60;;
3341;SDS011;1684;50.748;6.154;2023-08-08T01:26:11;7.10;;;3.40;;
3341;SDS011;1684;50.748;6.154;2023-08-08T01:28:41;14.60;;;4.20;;
3341;SDS011;1684;50.748;6.154;2023-08-08T01:31:10;4.53;;;2.83;;
3341;SDS011;1684;50.748;6.154;2023-08-08T01:33:39;7.50;;;3.20;;
3341;SDS011;1684;50.748;6.154;2023-08-08T01:36:09;5.20;;;3.00;;
3341;SDS011;1684;50.748;6.154;2023-08-08T01:38:41;10.17;;;4.20;;
3341;SDS011;1684;50.748;6.154;2023-08-08T01:41:11;7.97;;;3.50;;
3341;SDS011;1684;50.748;6.154;2023-08-08T01:43:40;6.17;;;3.37;;
3341;SDS011;1684;50.748;6.154;2023-08-08T01:46:08;8.83;;;3.50;;
3341;SDS011;1684;50.748;6.154;2023-08-08T01:48:37;6.03;;;3.93;;
3341;SDS011;1684;50.748;6.154;2023-08-08T01:51:05;7.80;;;2.97;;
3341;SDS011;1684;50.748;6.154;2023-08-08T01:53:34;6.00;;;3.33;;
3341;SDS011;1684;50.748;6.154;2023-08-08T01:56:02;9.23;;;3.30;;
3341;SDS011;1684;50.748;6.154;2023-08-08T01:58:32;5.97;;;3.40;;
3341;SDS011;1684;50.748;6.154;2023-08-08T02:01:00;5.30;;;3.10;;
3341;SDS011;1684;50.748;6.154;2023-08-08T02:03:28;8.00;;;3.27;;
3341;SDS011;1684;50.748;6.154;2023-08-08T02:05:57;6.30;;;3.00;;
3341;SDS011;1684;50.748;6.154;2023-08-08T02:08:25;10.00;;;2.67;;
3341;SDS011;1684;50.748;6.154;2023-08-08T02:10:53;5.70;;;3.10;;
3341;SDS011;1684;50.748;6.154;2023-08-08T02:13:21;4.67;;;3.17;;
3341;SDS011;1684;50.748;6.154;2023-08-08T02:15:51;5.93;;;3.20;;
3341;SDS011;1684;50.748;6.154;2023-08-08T02:18:20;5.37;;;3.17;;
3341;SDS011;1684;50.748;6.154;2023-08-08T02:20:48;5.93;;;3.70;;
3341;SDS011;1684;50.748;6.154;2023-08-08T02:23:16;6.03;;;2.83;;
3341;SDS011;1684;50.748;6.154;2023-08-08T02:25:45;5.73;;;2.83;;
3341;SDS011;1684;50.748;6.154;2023-08-08T02:28:13;6.90;;;3.03;;
3341;SDS011;1684;50.748;6.154;2023-08-08T02:30:41;9.27;;;2.90;;
3341;SDS011;1684;50.748;6.154;2023-08-08T02:33:11;5.17;;;3.00;;
3341;SDS011;1684;50.748;6.154;2023-08-08T02:35:39;8.57;;;3.70;;
3341;SDS011;1684;50.748;6.154;2023-08-08T02:38:07;4.80;;;2.73;;
3341;SDS011;1684;50.748;6.154;2023-08-08T02:40:36;13.63;;;2.87;;
3341;SDS011;1684;50.748;6.154;2023-08-08T02:43:05;5.40;;;2.87;;
3341;SDS011;1684;50.748;6.154;2023-08-08T02:45:33;5.60;;;2.67;;
3341;SDS011;1684;50.748;6.154;2023-08-08T02:48:01;5.90;;;3.10;;
3341;SDS011;1684;50.748;6.154;2023-08-08T02:50:32;4.77;;;3.30;;
3341;SDS011;1684;50.748;6.154;2023-08-08T02:53:00;6.87;;;3.20;;
3341;SDS011;1684;50.748;6.154;2023-08-08T02:55:28;7.60;;;3.40;;
3341;SDS011;1684;50.748;6.154;2023-08-08T02:57:57;6.30;;;2.77;;
3341;SDS011;1684;50.748;6.154;2023-08-08T03:00:25;6.77;;;2.80;;
3341;SDS011;1684;50.748;6.154;2023-08-08T03:02:53;7.27;;;3.03;;
3341;SDS011;1684;50.748;6.154;2023-08-08T03:05:22;7.33;;;3.33;;
3341;SDS011;1684;50.748;6.154;2023-08-08T03:07:51;4.37;;;2.77;;
3341;SDS011;1684;50.748;6.154;2023-08-08T03:10:19;11.03;;;3.70;;
3341;SDS011;1684;50.748;6.154;2023-08-08T03:12:48;7.57;;;3.23;;
3341;SDS011;1684;50.748;6.154;2023-08-08T03:15:16;6.83;;;3.00;;
3341;SDS011;1684;50.748;6.154;2023-08-08T03:17:44;6.43;;;2.90;;
3341;SDS011;1684;50.748;6.154;2023-08-08T03:20:13;6.83;;;3.20;;
3341;SDS011;1684;50.748;6.154;2023-08-08T03:22:41;4.77;;;2.70;;
3341;SDS011;1684;50.748;6.154;2023-08-08T03:25:11;6.50;;;2.87;;
3341;SDS011;1684;50.748;6.154;2023-08-08T03:27:39;9.60;;;3.30;;
3341;SDS011;1684;50.748;6.154;2023-08-08T03:30:07;6.63;;;3.30;;
3341;SDS011;1684;50.748;6.154;2023-08-08T03:32:36;6.40;;;3.30;;
3341;SDS011;1684;50.748;6.154;2023-08-08T03:35:04;10.30;;;3.80;;
3341;SDS011;1684;50.748;6.154;2023-08-08T03:37:33;6.63;;;3.00;;
3341;SDS011;1684;50.748;6.154;2023-08-08T03:40:01;8.87;;;4.00;;
3341;SDS011;1684;50.748;6.154;2023-08-08T03:42:31;9.60;;;3.67;;
3341;SDS011;1684;50.748;6.154;2023-08-08T03:44:59;12.23;;;4.13;;
3341;SDS011;1684;50.748;6.154;2023-08-08T03:47:27;7.17;;;4.27;;
3341;SDS011;1684;50.748;6.154;2023-08-08T03:49:56;9.63;;;3.37;;
3341;SDS011;1684;50.748;6.154;2023-08-08T03:52:24;10.90;;;4.70;;
3341;SDS011;1684;50.748;6.154;2023-08-08T03:54:52;5.93;;;4.10;;
3341;SDS011;1684;50.748;6.154;2023-08-08T03:57:21;7.00;;;3.60;;
3341;SDS011;1684;50.748;6.154;2023-08-08T03:59:50;12.47;;;3.43;;
3341;SDS011;1684;50.748;6.154;2023-08-08T04:02:19;9.50;;;4.20;;
3341;SDS011;1684;50.748;6.154;2023-08-08T04:04:47;10.00;;;4.90;;
3341;SDS011;1684;50.748;6.154;2023-08-08T04:07:16;12.47;;;4.20;;
3341;SDS011;1684;50.748;6.154;2023-08-08T04:09:44;8.47;;;4.70;;
3341;SDS011;1684;50.748;6.154;2023-08-08T04:12:13;11.27;;;4.50;;
3341;SDS011;1684;50.748;6.154;2023-08-08T04:14:41;6.40;;;4.00;;
3341;SDS011;1684;50.748;6.154;2023-08-08T04:17:10;7.90;;;3.40;;
3341;SDS011;1684;50.748;6.154;2023-08-08T04:19:39;7.93;;;4.13;;
3341;SDS011;1684;50.748;6.154;2023-08-08T04:22:07;15.27;;;4.47;;
3341;SDS011;1684;50.748;6.154;2023-08-08T04:24:36;5.97;;;3.63;;
3341;SDS011;1684;50.748;6.154;2023-08-08T04:27:05;10.70;;;4.00;;
3341;SDS011;1684;50.748;6.154;2023-08-08T04:29:33;8.73;;;4.93;;
3341;SDS011;1684;50.748;6.154;2023-08-08T04:32:01;12.20;;;4.30;;
3341;SDS011;1684;50.748;6.154;2023-08-08T04:34:31;7.30;;;4.87;;
3341;SDS011;1684;50.748;6.154;2023-08-08T04:36:59;9.47;;;3.90;;
3341;SDS011;1684;50.748;6.154;2023-08-08T04:39:28;10.67;;;4.43;;
3341;SDS011;1684;50.748;6.154;2023-08-08T04:41:56;9.70;;;5.13;;
3341;SDS011;1684;50.748;6.154;2023-08-08T04:44:25;18.10;;;5.50;;
3341;SDS011;1684;50.748;6.154;2023-08-08T04:46:53;13.93;;;4.93;;
3341;SDS011;1684;50.748;6.154;2023-08-08T04:49:21;8.43;;;4.20;;
3341;SDS011;1684;50.748;6.154;2023-08-08T04:51:51;9.83;;;5.10;;
3341;SDS011;1684;50.748;6.154;2023-08-08T04:54:20;10.70;;;5.17;;
3341;SDS011;1684;50.748;6.154;2023-08-08T04:56:48;8.30;;;4.60;;
3341;SDS011;1684;50.748;6.154;2023-08-08T04:59:17;10.27;;;5.93;;
3341;SDS011;1684;50.748;6.154;2023-08-08T05:01:45;8.23;;;4.50;;
3341;SDS011;1684;50.748;6.154;2023-08-08T05:04:13;8.20;;;5.13;;
3341;SDS011;1684;50.748;6.154;2023-08-08T05:06:42;9.30;;;5.07;;
3341;SDS011;1684;50.748;6.154;2023-08-08T05:09:11;7.73;;;5.30;;
3341;SDS011;1684;50.748;6.154;2023-08-08T05:11:40;8.27;;;4.73;;
3341;SDS011;1684;50.748;6.154;2023-08-08T05:14:08;13.30;;;5.30;;
3341;SDS011;1684;50.748;6.154;2023-08-08T05:16:36;14.00;;;5.50;;
3341;SDS011;1684;50.748;6.154;2023-08-08T05:19:05;9.67;;;6.47;;
3341;SDS011;1684;50.748;6.154;2023-08-08T05:21:34;13.10;;;5.30;;
3341;SDS011;1684;50.748;6.154;2023-08-08T05:24:02;13.33;;;6.27;;
3341;SDS011;1684;50.748;6.154;2023-08-08T05:26:32;9.50;;;5.20;;
3341;SDS011;1684;50.748;6.154;2023-08-08T05:29:00;13.00;;;6.43;;
3341;SDS011;1684;50.748;6.154;2023-08-08T05:31:28;12.23;;;5.40;;
3341;SDS011;1684;50.748;6.154;2023-08-08T05:33:56;10.77;;;5.53;;
3341;SDS011;1684;50.748;6.154;2023-08-08T05:36:25;12.53;;;6.33;;
3341;SDS011;1684;50.748;6.154;2023-08-08T05:38:53;17.43;;;6.20;;
3341;SDS011;1684;50.748;6.154;2023-08-08T05:41:21;9.73;;;6.17;;
3341;SDS011;1684;50.748;6.154;2023-08-08T05:43:51;13.10;;;4.93;;
3341;SDS011;1684;50.748;6.154;2023-08-08T05:46:19;11.03;;;5.60;;
3341;SDS011;1684;50.748;6.154;2023-08-08T05:48:48;15.10;;;5.00;;
3341;SDS011;1684;50.748;6.154;2023-08-08T05:51:16;18.60;;;5.97;;
3341;SDS011;1684;50.748;6.154;2023-08-08T05:53:44;10.20;;;5.63;;
3341;SDS011;1684;50.748;6.154;2023-08-08T05:56:13;11.43;;;5.63;;
3341;SDS011;1684;50.748;6.154;2023-08-08T05:58:42;7.43;;;3.67;;
3341;SDS011;1684;50.748;6.154;2023-08-08T06:01:11;8.80;;;4.87;;
3341;SDS011;1684;50.748;6.154;2023-08-08T06:03:40;15.67;;;4.60;;
3341;SDS011;1684;50.748;6.154;2023-08-08T06:06:08;8.80;;;5.10;;
3341;SDS011;1684;50.748;6.154;2023-08-08T06:08:37;18.67;;;6.40;;
3341;SDS011;1684;50.748;6.154;2023-08-08T06:11:05;9.17;;;6.40;;
3341;SDS011;1684;50.748;6.154;2023-08-08T06:13:33;10.27;;;5.73;;
3341;SDS011;1684;50.748;6.154;2023-08-08T06:16:02;18.20;;;6.80;;
3341;SDS011;1684;50.748;6.154;2023-08-08T06:18:34;8.73;;;5.20;;
3341;SDS011;1684;50.748;6.154;2023-08-08T06:21:02;10.90;;;6.20;;
3341;SDS011;1684;50.748;6.154;2023-08-08T06:23:30;14.17;;;6.77;;
3341;SDS011;1684;50.748;6.154;2023-08-08T06:25:59;23.40;;;7.37;;
3341;SDS011;1684;50.748;6.154;2023-08-08T06:28:27;11.80;;;5.83;;
3341;SDS011;1684;50.748;6.154;2023-08-08T06:30:56;18.33;;;7.07;;
3341;SDS011;1684;50.748;6.154;2023-08-08T06:33:24;8.67;;;6.40;;
3341;SDS011;1684;50.748;6.154;2023-08-08T06:35:55;10.37;;;7.60;;
3341;SDS011;1684;50.748;6.154;2023-08-08T06:38:23;13.23;;;7.63;;
3341;SDS011;1684;50.748;6.154;2023-08-08T06:40:51;12.40;;;8.57;;
3341;SDS011;1684;50.748;6.154;2023-08-08T06:43:20;15.67;;;8.27;;
3341;SDS011;1684;50.748;6.154;2023-08-08T06:45:48;12.53;;;8.47;;
3341;SDS011;1684;50.748;6.154;2023-08-08T06:48:16;17.43;;;8.33;;
3341;SDS011;1684;50.748;6.154;2023-08-08T06:50:45;19.97;;;8.93;;
3341;SDS011;1684;50.748;6.154;2023-08-08T06:53:14;16.70;;;7.87;;
3341;SDS011;1684;50.748;6.154;2023-08-08T06:55:43;13.10;;;7.97;;
3341;SDS011;1684;50.748;6.154;2023-08-08T06:58:11;27.53;;;10.27;;
3341;SDS011;1684;50.748;6.154;2023-08-08T07:00:39;13.30;;;7.97;;
3341;SDS011;1684;50.748;6.154;2023-08-08T07:03:08;13.53;;;8.87;;
3341;SDS011;1684;50.748;6.154;2023-08-08T07:05:36;14.30;;;8.30;;
3341;SDS011;1684;50.748;6.154;2023-08-08T07:08:05;16.13;;;8.60;;
3341;SDS011;1684;50.748;6.154;2023-08-08T07:10:36;14.00;;;8.73;;
3341;SDS011;1684;50.748;6.154;2023-08-08T07:13:04;16.23;;;9.63;;
3341;SDS011;1684;50.748;6.154;2023-08-08T07:15:33;18.03;;;9.00;;
3341;SDS011;1684;50.748;6.154;2023-08-08T07:18:01;13.60;;;9.20;;
3341;SDS011;1684;50.748;6.154;2023-08-08T07:20:30;13.13;;;8.60;;
3341;SDS011;1684;50.748;6.154;2023-08-08T07:22:58;18.57;;;8.00;;
3341;SDS011;1684;50.748;6.154;2023-08-08T07:25:27;11.00;;;7.90;;
3341;SDS011;1684;50.748;6.154;2023-08-08T07:27:57;13.67;;;8.00;;
3341;SDS011;1684;50.748;6.154;2023-08-08T07:30:25;13.70;;;6.70;;
3341;SDS011;1684;50.748;6.154;2023-08-08T07:32:53;13.77;;;7.80;;
3341;SDS011;1684;50.748;6.154;2023-08-08T07:35:22;11.20;;;6.97;;
3341;SDS011;1684;50.748;6.154;2023-08-08T07:37:50;12.83;;;8.37;;
3341;SDS011;1684;50.748;6.154;2023-08-08T07:40:19;12.00;;;7.03;;
3341;SDS011;1684;50.748;6.154;2023-08-08T07:42:48;16.83;;;7.00;;
3341;SDS011;1684;50.748;6.154;2023-08-08T07:45:18;12.40;;;6.60;;
3341;SDS011;1684;50.748;6.154;2023-08-08T07:47:47;10.27;;;6.23;;
3341;SDS011;1684;50.748;6.154;2023-08-08T07:50:15;10.17;;;6.47;;
3341;SDS011;1684;50.748;6.154;2023-08-08T07:52:44;7.87;;;6.10;;
3341;SDS011;1684;50.748;6.154;2023-08-08T07:55:12;7.93;;;5.40;;
3341;SDS011;1684;50.748;6.154;2023-08-08T07:57:41;10.50;;;5.33;;
3341;SDS011;1684;50.748;6.154;2023-08-08T08:00:09;10.40;;;5.77;;
3341;SDS011;1684;50.748;6.154;2023-08-08T08:02:40;9.70;;;5.73;;
3341;SDS011;1684;50.748;6.154;2023-08-08T08:05:09;12.93;;;5.83;;
3341;SDS011;1684;50.748;6.154;2023-08-08T08:07:38;8.30;;;5.20;;
3341;SDS011;1684;50.748;6.154;2023-08-08T08:10:07;8.33;;;5.30;;
3341;SDS011;1684;50.748;6.154;2023-08-08T08:12:36;9.23;;;3.80;;
3341;SDS011;1684;50.748;6.154;2023-08-08T08:15:05;11.03;;;4.30;;
3341;SDS011;1684;50.748;6.154;2023-08-08T08:17:33;7.63;;;5.03;;
3341;SDS011;1684;50.748;6.154;2023-08-08T08:20:03;14.40;;;5.17;;
3341;SDS011;1684;50.748;6.154;2023-08-08T08:22:36;10.80;;;5.60;;
3341;SDS011;1684;50.748;6.154;2023-08-08T08:25:05;12.10;;;4.90;;
3341;SDS011;1684;50.748;6.154;2023-08-08T08:27:35;9.00;;;4.60;;
3341;SDS011;1684;50.748;6.154;2023-08-08T08:30:04;7.40;;;4.90;;
3341;SDS011;1684;50.748;6.154;2023-08-08T08:32:33;9.10;;;3.93;;
3341;SDS011;1684;50.748;6.154;2023-08-08T08:35:03;7.77;;;3.90;;
3341;SDS011;1684;50.748;6.154;2023-08-08T08:37:32;11.33;;;5.07;;
3341;SDS011;1684;50.748;6.154;2023-08-08T08:40:01;10.93;;;4.57;;
3341;SDS011;1684;50.748;6.154;2023-08-08T08:42:31;7.10;;;4.10;;
3341;SDS011;1684;50.748;6.154;2023-08-08T08:45:01;5.47;;;3.50;;
3341;SDS011;1684;50.748;6.154;2023-08-08T08:47:30;10.63;;;4.63;;
3341;SDS011;1684;50.748;6.154;2023-08-08T08:49:59;8.10;;;4.13;;
3341;SDS011;1684;50.748;6.154;2023-08-08T08:52:30;7.90;;;4.40;;
3341;SDS011;1684;50.748;6.154;2023-08-08T08:54:59;13.20;;;4.03;;
3341;SDS011;1684;50.748;6.154;2023-08-08T08:57:27;10.30;;;4.40;;
3341;SDS011;1684;50.748;6.154;2023-08-08T08:59:56;11.40;;;4.30;;
3341;SDS011;1684;50.748;6.154;2023-08-08T09:02:24;10.10;;;4.70;;
3341;SDS011;1684;50.748;6.154;2023-08-08T09:04:52;10.43;;;3.33;;
3341;SDS011;1684;50.748;6.154;2023-08-08T09:07:22;7.70;;;2.83;;
3341;SDS011;1684;50.748;6.154;2023-08-08T09:09:53;9.83;;;3.77;;
3341;SDS011;1684;50.748;6.154;2023-08-08T09:12:21;9.17;;;3.90;;
3341;SDS011;1684;50.748;6.154;2023-08-08T09:14:54;5.83;;;3.23;;
3341;SDS011;1684;50.748;6.154;2023-08-08T09:17:24;7.57;;;3.00;;
3341;SDS011;1684;50.748;6.154;2023-08-08T09:20:12;7.80;;;3.00;;
3341;SDS011;1684;50.748;6.154;2023-08-08T09:22:41;7.83;;;3.70;;
3341;SDS011;1684;50.748;6.154;2023-08-08T09:25:10;8.50;;;4.07;;
3341;SDS011;1684;50.748;6.154;2023-08-08T09:27:40;7.23;;;3.10;;
3341;SDS011;1684;50.748;6.154;2023-08-08T09:30:09;16.70;;;3.60;;
3341;SDS011;1684;50.748;6.154;2023-08-08T09:32:38;6.33;;;3.00;;
3341;SDS011;1684;50.748;6.154;2023-08-08T09:35:06;7.03;;;3.43;;
3341;SDS011;1684;50.748;6.154;2023-08-08T09:37:36;7.77;;;3.90;;
3341;SDS011;1684;50.748;6.154;2023-08-08T09:40:05;5.77;;;3.43;;
3341;SDS011;1684;50.748;6.154;2023-08-08T09:42:39;5.53;;;3.23;;
3341;SDS011;1684;50.748;6.154;2023-08-08T09:45:09;9.00;;;3.70;;
3341;SDS011;1684;50.748;6.154;2023-08-08T09:47:37;8.13;;;4.00;;
3341;SDS011;1684;50.748;6.154;2023-08-08T09:50:06;9.07;;;3.13;;
3341;SDS011;1684;50.748;6.154;2023-08-08T09:52:35;9.80;;;2.80;;
3341;SDS011;1684;50.748;6.154;2023-08-08T09:55:05;7.20;;;3.07;;
3341;SDS011;1684;50.748;6.154;2023-08-08T09:57:34;4.73;;;2.80;;
3341;SDS011;1684;50.748;6.154;2023-08-08T10:00:04;5.10;;;2.90;;
3341;SDS011;1684;50.748;6.154;2023-08-08T10:02:36;16.80;;;4.47;;
3341;SDS011;1684;50.748;6.154;2023-08-08T10:05:05;4.90;;;2.60;;
3341;SDS011;1684;50.748;6.154;2023-08-08T10:07:33;6.60;;;2.63;;
3341;SDS011;1684;50.748;6.154;2023-08-08T10:10:02;5.20;;;1.93;;
3341;SDS011;1684;50.748;6.154;2023-08-08T10:12:30;8.47;;;2.90;;
3341;SDS011;1684;50.748;6.154;2023-08-08T10:14:59;12.33;;;3.40;;
3341;SDS011;1684;50.748;6.154;2023-08-08T10:17:34;8.03;;;3.17;;
3341;SDS011;1684;50.748;6.154;2023-08-08T10:20:02;5.00;;;2.37;;
3341;SDS011;1684;50.748;6.154;2023-08-08T10:22:36;7.37;;;2.87;;
3341;SDS011;1684;50.748;6.154;2023-08-08T10:25:05;6.80;;;3.10;;
3341;SDS011;1684;50.748;6.154;2023-08-08T10:27:35;6.33;;;2.60;;
3341;SDS011;1684;50.748;6.154;2023-08-08T10:30:06;7.73;;;3.07;;
3341;SDS011;1684;50.748;6.154;2023-08-08T10:32:41;8.70;;;3.07;;
3341;SDS011;1684;50.748;6.154;2023-08-08T10:35:10;10.60;;;2.50;;
3341;SDS011;1684;50.748;6.154;2023-08-08T10:37:39;10.43;;;2.90;;
3341;SDS011;1684;50.748;6.154;2023-08-08T10:40:08;6.23;;;2.57;;
3341;SDS011;1684;50.748;6.154;2023-08-08T10:42:41;7.60;;;2.93;;
3341;SDS011;1684;50.748;6.154;2023-08-08T10:45:10;4.80;;;2.50;;
3341;SDS011;1684;50.748;6.154;2023-08-08T10:47:40;7.17;;;2.47;;
3341;SDS011;1684;50.748;6.154;2023-08-08T10:50:09;5.10;;;3.03;;
3341;SDS011;1684;50.748;6.154;2023-08-08T10:52:38;7.13;;;3.70;;
3341;SDS011;1684;50.748;6.154;2023-08-08T10:55:18;7.50;;;2.30;;
3341;SDS011;1684;50.748;6.154;2023-08-08T10:57:54;9.80;;;3.17;;
3341;SDS011;1684;50.748;6.154;2023-08-08T11:00:24;6.43;;;2.60;;
3341;SDS011;1684;50.748;6.154;2023-08-08T11:02:54;8.63;;;3.50;;
3341;SDS011;1684;50.748;6.154;2023-08-08T11:05:23;5.77;;;2.60;;
3341;SDS011;1684;50.748;6.154;2023-08-08T11:07:52;7.03;;;2.87;;
3341;SDS011;1684;50.748;6.154;2023-08-08T11:10:21;7.57;;;3.10;;
3341;SDS011;1684;50.748;6.154;2023-08-08T11:12:56;6.30;;;3.30;;
3341;SDS011;1684;50.748;6.154;2023-08-08T11:15:25;6.00;;;2.67;;
3341;SDS011;1684;50.748;6.154;2023-08-08T11:17:56;8.87;;;2.63;;
3341;SDS011;1684;50.748;6.154;2023-08-08T11:20:24;7.43;;;2.80;;
3341;SDS011;1684;50.748;6.154;2023-08-08T11:22:53;7.70;;;2.43;;
3341;SDS011;1684;50.748;6.154;2023-08-08T11:25:21;3.70;;;2.30;;
3341;SDS011;1684;50.748;6.154;2023-08-08T11:27:50;6.83;;;2.87;;
3341;SDS011;1684;50.748;6.154;2023-08-08T11:30:19;6.30;;;2.40;;
3341;SDS011;1684;50.748;6.154;2023-08-08T11:32:48;6.13;;;2.73;;
3341;SDS011;1684;50.748;6.154;2023-08-08T11:35:22;4.10;;;1.87;;
3341;SDS011;1684;50.748;6.154;2023-08-08T11:37:52;5.30;;;2.57;;
3341;SDS011;1684;50.748;6.154;2023-08-08T11:40:20;4.97;;;2.57;;
3341;SDS011;1684;50.748;6.154;2023-08-08T11:42:50;7.27;;;2.50;;
3341;SDS011;1684;50.748;6.154;2023-08-08T11:45:18;5.57;;;2.50;;
3341;SDS011;1684;50.748;6.154;2023-08-08T11:47:48;3.40;;;2.37;;
3341;SDS011;1684;50.748;6.154;2023-08-08T11:50:18;7.47;;;2.87;;
3341;SDS011;1684;50.748;6.154;2023-08-08T11:52:48;6.77;;;2.20;;
3341;SDS011;1684;50.748;6.154;2023-08-08T11:55:18;3.90;;;1.70;;
3341;SDS011;1684;50.748;6.154;2023-08-08T11:57:49;6.23;;;2.50;;
3341;SDS011;1684;50.748;6.154;2023-08-08T12:00:19;6.17;;;2.90;;
3341;SDS011;1684;50.748;6.154;2023-08-08T12:02:47;8.53;;;2.60;;
3341;SDS011;1684;50.748;6.154;2023-08-08T12:05:16;4.60;;;2.33;;
3341;SDS011;1684;50.748;6.154;2023-08-08T12:07:51;6.90;;;2.30;;
3341;SDS011;1684;50.748;6.154;2023-08-08T12:10:20;4.87;;;2.80;;
3341;SDS011;1684;50.748;6.154;2023-08-08T12:12:52;6.13;;;2.33;;
3341;SDS011;1684;50.748;6.154;2023-08-08T12:15:21;7.37;;;2.40;;
3341;SDS011;1684;50.748;6.154;2023-08-08T12:17:49;5.67;;;2.40;;
3341;SDS011;1684;50.748;6.154;2023-08-08T12:20:17;6.13;;;2.43;;
3341;SDS011;1684;50.748;6.154;2023-08-08T12:22:46;3.40;;;1.70;;
3341;SDS011;1684;50.748;6.154;2023-08-08T12:25:16;5.10;;;2.40;;
3341;SDS011;1684;50.748;6.154;2023-08-08T12:27:44;5.57;;;2.30;;
3341;SDS011;1684;50.748;6.154;2023-08-08T12:30:15;6.93;;;3.10;;
3341;SDS011;1684;50.748;6.154;2023-08-08T12:32:43;5.00;;;2.57;;
3341;SDS011;1684;50.748;6.154;2023-08-08T12:35:12;6.30;;;2.60;;
3341;SDS011;1684;50.748;6.154;2023-08-08T12:37:42;4.97;;;2.67;;
3341;SDS011;1684;50.748;6.154;2023-08-08T12:40:10;6.00;;;2.33;;
3341;SDS011;1684;50.748;6.154;2023-08-08T12:42:40;5.90;;;3.10;;
3341;SDS011;1684;50.748;6.154;2023-08-08T12:45:08;5.07;;;2.07;;
3341;SDS011;1684;50.748;6.154;2023-08-08T12:47:37;5.70;;;2.50;;
3341;SDS011;1684;50.748;6.154;2023-08-08T12:50:06;6.10;;;2.80;;
3341;SDS011;1684;50.748;6.154;2023-08-08T12:52:35;7.70;;;2.60;;
3341;SDS011;1684;50.748;6.154;2023-08-08T12:55:04;4.87;;;2.77;;
3341;SDS011;1684;50.748;6.154;2023-08-08T12:57:33;6.17;;;2.50;;
3341;SDS011;1684;50.748;6.154;2023-08-08T13:00:03;11.67;;;3.83;;
3341;SDS011;1684;50.748;6.154;2023-08-08T13:02:32;6.30;;;3.17;;
3341;SDS011;1684;50.748;6.154;2023-08-08T13:05:00;4.17;;;2.40;;
3341;SDS011;1684;50.748;6.154;2023-08-08T13:07:30;6.30;;;2.10;;
3341;SDS011;1684;50.748;6.154;2023-08-08T13:09:58;5.60;;;2.63;;
3341;SDS011;1684;50.748;6.154;2023-08-08T13:12:27;9.00;;;4.03;;
3341;SDS011;1684;50.748;6.154;2023-08-08T13:14:55;6.37;;;2.87;;
3341;SDS011;1684;50.748;6.154;2023-08-08T13:17:24;14.73;;;3.30;;
3341;SDS011;1684;50.748;6.154;2023-08-08T13:19:53;8.27;;;2.50;;
3341;SDS011;1684;50.748;6.154;2023-08-08T13:22:21;6.20;;;3.00;;
3341;SDS011;1684;50.748;6.154;2023-08-08T13:24:49;7.07;;;2.60;;
3341;SDS011;1684;50.748;6.154;2023-08-08T13:27:18;6.67;;;2.80;;
3341;SDS011;1684;50.748;6.154;2023-08-08T13:29:46;6.70;;;2.90;;
3341;SDS011;1684;50.748;6.154;2023-08-08T13:32:15;5.57;;;2.73;;
3341;SDS011;1684;50.748;6.154;2023-08-08T13:34:44;6.50;;;2.57;;
3341;SDS011;1684;50.748;6.154;2023-08-08T13:37:13;8.90;;;2.80;;
3341;SDS011;1684;50.748;6.154;2023-08-08T13:39:41;6.50;;;3.23;;
3341;SDS011;1684;50.748;6.154;2023-08-08T13:42:09;9.97;;;3.17;;
3341;SDS011;1684;50.748;6.154;2023-08-08T13:44:38;6.23;;;2.80;;
3341;SDS011;1684;50.748;6.154;2023-08-08T13:47:06;7.40;;;3.30;;
3341;SDS011;1684;50.748;6.154;2023-08-08T13:49:34;6.20;;;2.57;;
3341;SDS011;1684;50.748;6.154;2023-08-08T13:52:04;8.43;;;3.10;;
3341;SDS011;1684;50.748;6.154;2023-08-08T13:54:34;8.17;;;3.00;;
3341;SDS011;1684;50.748;6.154;2023-08-08T13:57:02;6.73;;;3.63;;
3341;SDS011;1684;50.748;6.154;2023-08-08T13:59:32;6.73;;;3.20;;
3341;SDS011;1684;50.748;6.154;2023-08-08T14:02:01;8.13;;;3.33;;
3341;SDS011;1684;50.748;6.154;2023-08-08T14:04:29;7.27;;;3.00;;
3341;SDS011;1684;50.748;6.154;2023-08-08T14:06:58;6.70;;;2.90;;
3341;SDS011;1684;50.748;6.154;2023-08-08T14:09:27;11.20;;;3.50;;
3341;SDS011;1684;50.748;6.154;2023-08-08T14:11:56;8.60;;;3.10;;
3341;SDS011;1684;50.748;6.154;2023-08-08T14:14:25;7.07;;;2.80;;
3341;SDS011;1684;50.748;6.154;2023-08-08T14:16:54;4.67;;;2.80;;
3341;SDS011;1684;50.748;6.154;2023-08-08T14:19:23;4.73;;;2.17;;
3341;SDS011;1684;50.748;6.154;2023-08-08T14:21:51;8.07;;;2.60;;
3341;SDS011;1684;50.748;6.154;2023-08-08T14:24:19;5.53;;;2.90;;
3341;SDS011;1684;50.748;6.154;2023-08-08T14:26:49;6.20;;;3.10;;
3341;SDS011;1684;50.748;6.154;2023-08-08T14:29:25;8.00;;;2.47;;
3341;SDS011;1684;50.748;6.154;2023-08-08T14:32:00;9.67;;;2.50;;
3341;SDS011;1684;50.748;6.154;2023-08-08T14:34:28;11.77;;;3.77;;
3341;SDS011;1684;50.748;6.154;2023-08-08T14:36:57;8.00;;;2.70;;
3341;SDS011;1684;50.748;6.154;2023-08-08T14:39:26;7.10;;;2.77;;
3341;SDS011;1684;50.748;6.154;2023-08-08T14:41:55;8.33;;;2.50;;
3341;SDS011;1684;50.748;6.154;2023-08-08T14:44:27;6.43;;;2.80;;
3341;SDS011;1684;50.748;6.154;2023-08-08T14:46:55;11.47;;;3.60;;
3341;SDS011;1684;50.748;6.154;2023-08-08T14:49:23;6.47;;;2.67;;
3341;SDS011;1684;50.748;6.154;2023-08-08T14:51:54;6.73;;;2.33;;
3341;SDS011;1684;50.748;6.154;2023-08-08T14:54:22;6.50;;;3.27;;
3341;SDS011;1684;50.748;6.154;2023-08-08T14:56:50;9.47;;;3.43;;
3341;SDS011;1684;50.748;6.154;2023-08-08T14:59:20;5.93;;;3.40;;
3341;SDS011;1684;50.748;6.154;2023-08-08T15:01:49;8.10;;;3.20;;
3341;SDS011;1684;50.748;6.154;2023-08-08T15:04:17;9.13;;;3.43;;
3341;SDS011;1684;50.748;6.154;2023-08-08T15:06:45;9.23;;;3.67;;
3341;SDS011;1684;50.748;6.154;2023-08-08T15:09:14;4.23;;;2.67;;
3341;SDS011;1684;50.748;6.154;2023-08-08T15:11:43;8.40;;;3.17;;
3341;SDS011;1684;50.748;6.154;2023-08-08T15:14:11;5.10;;;2.80;;
3341;SDS011;1684;50.748;6.154;2023-08-08T15:16:41;4.00;;;2.50;;
3341;SDS011;1684;50.748;6.154;2023-08-08T15:19:09;7.20;;;2.90;;
3341;SDS011;1684;50.748;6.154;2023-08-08T15:21:37;11.20;;;3.30;;
3341;SDS011;1684;50.748;6.154;2023-08-08T15:24:06;4.77;;;2.50;;